createdAt,value
2023-02-19T00:02:27.185Z,3.75
2023-02-19T00:04:54.828Z,3.08
2023-02-19T00:07:22.531Z,3.83
2023-02-19T00:09:50.236Z,3.80
2023-02-19T00:12:17.834Z,3.42
2023-02-19T00:14:50.958Z,3.20
2023-02-19T00:17:18.712Z,3.08
2023-02-19T00:19:46.220Z,3.97
2023-02-19T00:22:13.385Z,3.63
2023-02-19T00:24:40.621Z,3.90
2023-02-19T00:27:08.150Z,4.40
2023-02-19T00:29:35.357Z,3.63
2023-02-19T00:32:02.637Z,3.65
2023-02-19T00:34:30.367Z,3.92
2023-02-19T00:37:03.046Z,3.95
2023-02-19T00:39:30.703Z,3.35
2023-02-19T00:41:59.361Z,3.72
2023-02-19T00:44:26.631Z,4.55
2023-02-19T00:46:54.507Z,3.72
2023-02-19T00:49:23.606Z,3.85
2023-02-19T00:51:53.237Z,3.88
2023-02-19T00:54:22.674Z,3.78
2023-02-19T00:56:51.068Z,3.83
2023-02-19T00:59:18.516Z,3.90
2023-02-19T01:01:46.309Z,4.15
2023-02-19T01:04:14.037Z,3.85
2023-02-19T01:06:41.753Z,6.03
2023-02-19T01:09:09.136Z,4.00
2023-02-19T01:11:36.761Z,2.80
2023-02-19T01:14:04.967Z,2.85
2023-02-19T01:17:47.780Z,3.97
2023-02-19T01:21:30.745Z,2.10
2023-02-19T01:25:13.436Z,2.10
2023-02-19T01:28:56.944Z,1.92
2023-02-19T01:32:39.711Z,1.50
2023-02-19T01:36:22.513Z,1.52
2023-02-19T01:40:04.827Z,1.63
2023-02-19T01:43:48.324Z,1.60
2023-02-19T01:47:31.609Z,1.65
2023-02-19T01:51:15.037Z,1.30
2023-02-19T01:54:57.885Z,1.67
2023-02-19T01:58:40.594Z,1.95
2023-02-19T02:02:25.081Z,1.60
2023-02-19T02:05:15.820Z,1.60
2023-02-19T02:09:19.476Z,1.95
2023-02-19T02:11:52.561Z,1.80
2023-02-19T02:15:36.706Z,1.70
2023-02-19T02:19:19.697Z,1.60
2023-02-19T02:22:14.832Z,1.67
2023-02-19T02:25:57.328Z,1.95
2023-02-19T02:29:06.480Z,1.80
2023-02-19T02:31:41.417Z,1.70
2023-02-19T02:34:24.750Z,1.60
2023-02-19T02:36:56.630Z,1.65
2023-02-19T02:39:32.489Z,1.98
2023-02-19T02:42:20.088Z,2.10
2023-02-19T02:45:41.692Z,2.10
2023-02-19T02:48:46.533Z,2.17
2023-02-19T02:51:37.725Z,2.55
2023-02-19T02:54:42.791Z,1.85
2023-02-19T02:57:15.312Z,2.00
2023-02-19T02:59:57.341Z,1.80
2023-02-19T03:02:31.449Z,2.22
2023-02-19T03:05:43.597Z,1.98
2023-02-19T03:08:31.258Z,1.95
2023-02-19T03:11:30.507Z,1.85
2023-02-19T03:15:09.546Z,1.92
2023-02-19T03:18:08.190Z,2.38
2023-02-19T03:20:42.177Z,2.20
2023-02-19T03:23:11.357Z,1.80
2023-02-19T03:29:06.466Z,2.10
2023-02-19T03:31:38.709Z,2.10
2023-02-19T03:34:15.812Z,2.30
2023-02-19T03:36:54.158Z,2.45
2023-02-19T03:39:23.825Z,1.70
2023-02-19T03:42:41.939Z,2.60
2023-02-19T03:45:31.899Z,2.08
2023-02-19T03:48:36.329Z,1.73
2023-02-19T03:51:41.529Z,1.90
2023-02-19T03:54:40.213Z,2.03
2023-02-19T03:57:36.997Z,1.88
2023-02-19T04:00:27.374Z,2.38
2023-02-19T04:03:02.496Z,1.60
2023-02-19T04:05:33.681Z,2.92
2023-02-19T04:08:18.982Z,2.20
2023-02-19T04:10:54.770Z,2.20
2023-02-19T04:13:45.279Z,2.20
2023-02-19T04:16:22.665Z,1.83
2023-02-19T04:18:57.397Z,1.83
2023-02-19T04:21:25.688Z,3.00
2023-02-19T04:23:52.974Z,2.28
2023-02-19T04:26:22.968Z,1.90
2023-02-19T04:28:50.182Z,1.50
2023-02-19T04:31:17.738Z,1.52
2023-02-19T04:33:44.951Z,1.33
2023-02-19T04:36:12.237Z,1.70
2023-02-19T04:38:39.598Z,1.50
2023-02-19T04:41:07.277Z,1.10
2023-02-19T04:43:35.598Z,1.17
2023-02-19T04:46:04.136Z,2.10
2023-02-19T04:48:31.889Z,1.10
2023-02-19T04:50:59.779Z,1.25
2023-02-19T04:53:27.493Z,0.90
2023-02-19T04:55:54.672Z,0.90
2023-02-19T04:58:22.217Z,0.80
2023-02-19T05:00:53.419Z,0.70
2023-02-19T05:03:20.528Z,0.70
2023-02-19T05:05:48.394Z,0.70
2023-02-19T05:08:16.151Z,0.82
2023-02-19T05:10:43.657Z,0.70
2023-02-19T05:13:10.869Z,0.80
2023-02-19T05:15:38.738Z,0.55
2023-02-19T05:18:06.377Z,0.67
2023-02-19T05:20:33.454Z,0.68
2023-02-19T05:23:00.652Z,0.70
2023-02-19T05:25:27.729Z,0.70
2023-02-19T05:28:15.281Z,0.82
2023-02-19T05:30:52.622Z,0.80
2023-02-19T05:33:24.736Z,1.58
2023-02-19T05:35:56.227Z,0.80
2023-02-19T05:38:24.723Z,0.95
2023-02-19T05:40:52.012Z,0.45
2023-02-19T05:43:19.632Z,0.70
2023-02-19T05:45:47.568Z,0.70
2023-02-19T05:48:15.677Z,0.65
2023-02-19T05:50:43.305Z,0.52
2023-02-19T05:53:13.174Z,0.63
2023-02-19T05:55:40.355Z,0.55
2023-02-19T05:58:07.473Z,0.60
2023-02-19T06:00:35.081Z,0.45
2023-02-19T06:03:02.335Z,0.60
2023-02-19T06:05:33.237Z,0.52
2023-02-19T06:08:02.509Z,0.70
2023-02-19T06:10:40.481Z,0.50
2023-02-19T06:13:19.259Z,1.00
2023-02-19T06:15:53.467Z,0.70
2023-02-19T06:18:24.819Z,0.60
2023-02-19T06:20:55.904Z,0.70
2023-02-19T06:23:29.154Z,1.20
2023-02-19T06:26:41.396Z,0.60
2023-02-19T06:29:24.604Z,0.80
2023-02-19T06:32:01.935Z,0.85
2023-02-19T06:34:42.357Z,0.60
2023-02-19T06:37:30.080Z,0.52
2023-02-19T06:40:07.370Z,0.50
2023-02-19T06:42:41.559Z,0.40
2023-02-19T06:45:12.737Z,0.50
2023-02-19T06:47:58.108Z,0.40
2023-02-19T06:50:38.354Z,0.50
2023-02-19T06:53:07.261Z,0.50
2023-02-19T06:55:47.627Z,0.30
2023-02-19T06:58:27.484Z,0.80
2023-02-19T07:01:02.143Z,0.45
2023-02-19T07:03:37.020Z,0.40
2023-02-19T07:06:11.548Z,0.50
2023-02-19T07:08:50.466Z,0.50
2023-02-19T07:11:22.407Z,0.60
2023-02-19T07:14:07.094Z,0.82
2023-02-19T07:16:49.299Z,0.90
2023-02-19T07:19:37.912Z,0.80
2023-02-19T07:22:13.158Z,0.60
2023-02-19T07:24:57.624Z,0.70
2023-02-19T07:27:36.623Z,0.60
2023-02-19T07:30:19.579Z,0.50
2023-02-19T07:33:03.088Z,0.50
2023-02-19T07:35:37.811Z,0.52
2023-02-19T07:38:11.260Z,0.68
2023-02-19T07:40:42.750Z,0.60
2023-02-19T07:43:19.087Z,0.60
2023-02-19T07:46:07.645Z,0.80
2023-02-19T07:48:43.037Z,0.70
2023-02-19T07:51:28.666Z,0.70
2023-02-19T07:54:15.684Z,0.80
2023-02-19T07:56:48.254Z,0.80
2023-02-19T07:59:23.288Z,0.80
2023-02-19T08:02:18.309Z,1.10
2023-02-19T08:04:59.056Z,0.90
2023-02-19T08:07:36.160Z,0.90
2023-02-19T08:10:24.603Z,0.93
2023-02-19T08:13:22.569Z,0.70
2023-02-19T08:16:26.624Z,0.70
2023-02-19T08:19:31.125Z,0.90
2023-02-19T08:22:05.560Z,0.90
2023-02-19T08:24:45.800Z,1.35
2023-02-19T08:27:24.127Z,1.35
2023-02-19T08:29:57.825Z,1.35
2023-02-19T08:32:31.056Z,1.10
2023-02-19T08:35:08.294Z,0.88
2023-02-19T08:38:02.276Z,0.77
2023-02-19T08:40:36.789Z,0.80
2023-02-19T08:43:28.717Z,0.80
2023-02-19T08:46:08.654Z,0.68
2023-02-19T08:48:53.851Z,0.77
2023-02-19T08:51:52.616Z,1.10
2023-02-19T08:54:24.804Z,0.77
2023-02-19T08:56:53.872Z,1.25
2023-02-19T08:59:28.633Z,0.70
2023-02-19T09:01:59.563Z,0.80
2023-02-19T09:04:34.245Z,0.70
2023-02-19T09:07:08.102Z,0.70
2023-02-19T09:09:41.303Z,0.60
2023-02-19T09:12:16.342Z,0.80
2023-02-19T09:14:51.263Z,0.70
2023-02-19T09:17:23.661Z,1.00
2023-02-19T09:20:02.777Z,0.82
2023-02-19T09:22:36.281Z,0.70
2023-02-19T09:25:14.272Z,0.80
2023-02-19T09:27:48.487Z,0.93
2023-02-19T09:30:22.705Z,0.85
2023-02-19T09:32:54.732Z,0.70
2023-02-19T09:35:28.286Z,0.75
2023-02-19T09:38:04.445Z,0.90
2023-02-19T09:40:39.776Z,0.70
2023-02-19T09:43:26.281Z,0.80
2023-02-19T09:46:13.730Z,0.70
2023-02-19T09:48:56.628Z,0.88
2023-02-19T09:51:30.280Z,1.15
2023-02-19T09:54:06.301Z,1.27
2023-02-19T09:56:48.389Z,1.17
2023-02-19T09:59:28.330Z,1.10
2023-02-19T10:02:27.964Z,1.08
2023-02-19T10:05:11.026Z,0.93
2023-02-19T10:07:52.872Z,1.20
2023-02-19T10:10:40.095Z,1.20
2023-02-19T10:13:30.471Z,1.00
2023-02-19T10:16:40.041Z,1.17
2023-02-19T10:19:18.447Z,0.80
2023-02-19T10:22:03.566Z,0.95
2023-02-19T10:24:48.581Z,0.90
2023-02-19T10:27:29.060Z,0.98
2023-02-19T10:30:24.437Z,1.40
2023-02-19T10:33:12.932Z,1.08
2023-02-19T10:39:26.488Z,0.90
2023-02-19T10:41:58.542Z,1.67
2023-02-19T10:45:04.392Z,1.08
2023-02-19T10:47:49.530Z,0.75
2023-02-19T10:50:40.577Z,1.10
2023-02-19T10:53:43.673Z,1.20
2023-02-19T10:56:33.059Z,1.00
2023-02-19T10:59:29.090Z,0.82
2023-02-19T11:02:15.951Z,1.20
2023-02-19T11:05:12.422Z,1.10
2023-02-19T11:08:04.497Z,0.88
2023-02-19T11:10:58.770Z,1.00
2023-02-19T11:13:47.559Z,1.23
2023-02-19T11:16:52.259Z,1.20
2023-02-19T11:19:46.740Z,1.02
2023-02-19T11:22:47.173Z,1.27
2023-02-19T11:25:27.421Z,1.33
2023-02-19T11:28:35.720Z,1.48
2023-02-19T11:31:20.202Z,0.98
2023-02-19T11:34:33.350Z,1.05
2023-02-19T11:37:38.560Z,1.00
2023-02-19T11:40:12.997Z,1.00
2023-02-19T11:43:07.799Z,1.05
2023-02-19T11:46:01.853Z,0.95
2023-02-19T11:48:51.969Z,0.98
2023-02-19T11:51:39.861Z,0.80
2023-02-19T11:55:03.467Z,1.00
2023-02-19T11:58:24.892Z,1.17
2023-02-19T12:01:37.837Z,0.98
2023-02-19T12:05:05.022Z,1.00
2023-02-19T12:08:08.608Z,1.10
2023-02-19T12:11:38.593Z,1.00
2023-02-19T12:15:07.589Z,1.20
2023-02-19T12:18:51.765Z,1.67
2023-02-19T12:22:07.541Z,1.17
2023-02-19T12:25:39.434Z,1.15
2023-02-19T12:29:08.228Z,1.30
2023-02-19T12:31:58.753Z,1.15
2023-02-19T12:35:29.956Z,1.23
2023-02-19T12:38:23.653Z,1.50
2023-02-19T12:41:19.858Z,1.23
2023-02-19T12:44:06.599Z,1.38
2023-02-19T12:47:54.405Z,1.45
2023-02-19T12:51:47.354Z,0.80
2023-02-19T12:54:55.670Z,1.25
2023-02-19T12:58:49.183Z,1.00
2023-02-19T13:01:34.967Z,1.85
2023-02-19T13:05:26.726Z,1.10
2023-02-19T13:09:14.840Z,1.50
2023-02-19T13:12:35.681Z,1.40
2023-02-19T13:16:20.771Z,1.25
2023-02-19T13:19:02.447Z,1.40
2023-02-19T13:23:10.758Z,1.65
2023-02-19T13:27:01.386Z,1.23
2023-02-19T13:30:49.658Z,1.00
2023-02-19T13:34:40.688Z,1.17
2023-02-19T13:37:19.948Z,1.05
2023-02-19T13:40:15.304Z,0.95
2023-02-19T13:44:04.164Z,1.10
2023-02-19T13:46:50.420Z,1.20
2023-02-19T13:49:25.765Z,1.10
2023-02-19T13:52:06.128Z,1.25
2023-02-19T13:57:35.726Z,1.10
2023-02-19T14:00:54.138Z,1.05
2023-02-19T14:03:38.182Z,1.30
2023-02-19T14:06:10.982Z,1.45
2023-02-19T14:08:57.391Z,1.58
2023-02-19T14:11:52.949Z,1.08
2023-02-19T14:15:15.344Z,0.98
2023-02-19T14:18:15.510Z,1.30
2023-02-19T14:20:51.295Z,1.25
2023-02-19T14:23:33.094Z,1.20
2023-02-19T14:26:04.520Z,1.08
2023-02-19T14:28:50.968Z,1.45
2023-02-19T14:31:40.025Z,1.30
2023-02-19T14:34:28.696Z,1.15
2023-02-19T14:37:12.830Z,1.10
2023-02-19T14:40:00.742Z,1.30
2023-02-19T14:42:37.129Z,1.10
2023-02-19T14:45:28.862Z,1.33
2023-02-19T14:48:02.683Z,1.40
2023-02-19T14:50:44.139Z,1.70
2023-02-19T14:53:34.212Z,1.50
2023-02-19T14:56:06.994Z,1.13
2023-02-19T14:58:37.318Z,1.20
2023-02-19T15:01:39.670Z,1.42
2023-02-19T15:04:39.086Z,1.30
2023-02-19T15:07:21.461Z,1.15
2023-02-19T15:09:57.845Z,1.75
2023-02-19T15:12:50.103Z,1.10
2023-02-19T15:15:41.997Z,1.00
2023-02-19T15:18:30.324Z,1.50
2023-02-19T15:21:09.033Z,1.25
2023-02-19T15:23:48.876Z,1.63
2023-02-19T15:26:43.200Z,1.50
2023-02-19T15:29:55.243Z,1.73
2023-02-19T15:32:37.811Z,1.10
2023-02-19T15:35:25.544Z,1.00
2023-02-19T15:38:03.406Z,1.27
2023-02-19T15:40:39.198Z,1.73
2023-02-19T15:43:23.588Z,1.20
2023-02-19T15:46:01.368Z,1.20
2023-02-19T15:48:55.207Z,1.33
2023-02-19T15:51:48.283Z,1.60
2023-02-19T15:54:40.118Z,1.33
2023-02-19T15:57:28.134Z,1.30
2023-02-19T16:01:10.038Z,1.88
2023-02-19T16:03:44.142Z,1.35
2023-02-19T16:06:30.900Z,1.48
2023-02-19T16:09:57.798Z,1.30
2023-02-19T16:12:32.272Z,1.70
2023-02-19T16:15:25.705Z,1.65
2023-02-19T16:18:06.160Z,1.83
2023-02-19T16:20:49.726Z,2.13
2023-02-19T16:23:25.241Z,2.40
2023-02-19T16:26:19.781Z,2.08
2023-02-19T16:29:06.968Z,1.40
2023-02-19T16:31:53.778Z,1.63
2023-02-19T16:34:53.208Z,1.55
2023-02-19T16:38:06.624Z,1.42
2023-02-19T16:41:28.436Z,1.70
2023-02-19T16:43:57.127Z,1.50
2023-02-19T16:46:30.214Z,1.67
2023-02-19T16:49:16.102Z,1.33
2023-02-19T16:51:51.588Z,1.70
2023-02-19T16:54:30.892Z,2.88
2023-02-19T16:57:18.972Z,1.50
2023-02-19T16:59:55.905Z,1.60
2023-02-19T17:03:03.308Z,1.85
2023-02-19T17:05:45.574Z,1.67
2023-02-19T17:08:40.107Z,1.77
2023-02-19T17:11:26.836Z,2.05
2023-02-19T17:14:09.552Z,2.08
2023-02-19T17:16:51.266Z,1.63
2023-02-19T17:19:23.020Z,1.60
2023-02-19T17:21:55.080Z,2.42
2023-02-19T17:24:24.671Z,1.95
2023-02-19T17:26:55.782Z,1.65
2023-02-19T17:29:25.164Z,1.75
2023-02-19T17:31:59.944Z,1.70
2023-02-19T17:34:32.170Z,1.92
2023-02-19T17:37:12.201Z,2.20
2023-02-19T17:39:49.752Z,1.60
2023-02-19T17:42:51.083Z,1.73
2023-02-19T17:45:28.465Z,1.90
2023-02-19T17:48:05.809Z,1.60
2023-02-19T17:50:39.075Z,1.42
2023-02-19T17:53:13.274Z,1.90
2023-02-19T17:56:21.758Z,2.00
2023-02-19T17:59:10.223Z,1.77
2023-02-19T18:08:42.740Z,2.33
2023-02-19T18:11:29.086Z,2.60
2023-02-19T18:14:02.288Z,2.08
2023-02-19T18:17:02.057Z,1.90
2023-02-19T18:19:53.305Z,2.03
2023-02-19T18:22:28.186Z,2.13
2023-02-19T18:25:13.067Z,2.70
2023-02-19T18:27:52.267Z,2.15
2023-02-19T18:30:41.125Z,1.88
2023-02-19T18:33:14.171Z,2.25
2023-02-19T18:35:59.564Z,1.90
2023-02-19T18:38:51.564Z,2.30
2023-02-19T18:41:53.704Z,1.92
2023-02-19T18:44:41.823Z,2.55
2023-02-19T18:47:36.710Z,2.22
2023-02-19T18:50:26.173Z,2.08
2023-02-19T18:53:04.662Z,2.38
2023-02-19T18:56:12.701Z,2.35
2023-02-19T18:59:16.405Z,2.50
2023-02-19T19:02:14.383Z,2.70
2023-02-19T19:05:17.657Z,2.92
2023-02-19T19:08:01.518Z,3.67
2023-02-19T19:10:48.825Z,3.25
2023-02-19T19:13:36.079Z,4.57
2023-02-19T19:16:33.314Z,4.65
2023-02-19T19:19:28.826Z,5.55
2023-02-19T19:22:13.193Z,4.28
2023-02-19T19:24:51.555Z,2.50
2023-02-19T19:27:20.220Z,2.92
2023-02-19T19:29:47.905Z,4.55
2023-02-19T19:32:20.600Z,3.15
2023-02-19T19:34:54.557Z,3.08
2023-02-19T19:37:22.104Z,2.63
2023-02-19T19:39:49.403Z,3.00
2023-02-19T19:42:16.709Z,2.83
2023-02-19T19:44:45.280Z,2.95
2023-02-19T19:47:12.667Z,3.22
2023-02-19T19:49:47.369Z,2.35
2023-02-19T19:52:15.388Z,2.95
2023-02-19T19:54:43.277Z,3.58
2023-02-19T19:57:11.651Z,3.78
2023-02-19T19:59:40.372Z,4.40
2023-02-19T20:02:10.504Z,3.63
2023-02-19T20:04:37.685Z,3.63
2023-02-19T20:07:05.408Z,4.33
2023-02-19T20:09:32.863Z,3.97
2023-02-19T20:12:00.136Z,3.80
2023-02-19T20:14:27.875Z,4.18
2023-02-19T20:16:56.519Z,4.70
2023-02-19T20:19:23.893Z,6.65
2023-02-19T20:21:53.319Z,4.43
2023-02-19T20:24:28.708Z,5.65
2023-02-19T20:27:00.419Z,3.78
2023-02-19T20:29:31.859Z,3.42
2023-02-19T20:32:00.488Z,4.65
2023-02-19T20:34:28.348Z,5.70
2023-02-19T20:36:56.948Z,3.72
2023-02-19T20:39:29.993Z,3.33
2023-02-19T20:41:59.428Z,3.28
2023-02-19T20:44:29.189Z,3.40
2023-02-19T20:46:59.608Z,2.90
2023-02-19T20:49:30.672Z,2.80
2023-02-19T20:52:05.077Z,5.47
2023-02-19T20:54:35.436Z,3.33
2023-02-19T20:57:05.964Z,3.20
2023-02-19T20:59:38.669Z,2.47
2023-02-19T21:02:24.624Z,2.42
2023-02-19T21:04:51.868Z,3.30
2023-02-19T21:07:19.906Z,3.85
2023-02-19T21:09:47.178Z,2.60
2023-02-19T21:12:14.708Z,2.72
2023-02-19T21:14:42.204Z,2.85
2023-02-19T21:17:09.648Z,3.33
2023-02-19T21:19:36.929Z,2.70
2023-02-19T21:22:04.495Z,3.08
2023-02-19T21:24:32.794Z,2.90
2023-02-19T21:27:00.007Z,2.60
2023-02-19T21:29:27.450Z,3.28
2023-02-19T21:31:57.404Z,2.78
2023-02-19T21:34:29.092Z,2.80
2023-02-19T21:36:57.062Z,2.53
2023-02-19T21:39:31.110Z,3.25
2023-02-19T21:41:58.767Z,2.40
2023-02-19T21:44:26.257Z,2.75
2023-02-19T21:46:53.718Z,3.08
2023-02-19T21:49:21.884Z,2.40
2023-02-19T21:51:50.212Z,2.37
2023-02-19T21:54:24.759Z,2.43
2023-02-19T21:56:53.901Z,2.70
2023-02-19T22:01:50.695Z,2.90
2023-02-19T22:04:21.860Z,2.78
2023-02-19T22:06:56.660Z,3.03
2023-02-19T22:09:24.036Z,2.83
2023-02-19T22:11:51.930Z,3.25
2023-02-19T22:14:19.204Z,2.63
2023-02-19T22:16:46.961Z,2.85
2023-02-19T22:19:14.296Z,2.90
2023-02-19T22:21:45.412Z,2.50
2023-02-19T22:24:21.864Z,2.85
2023-02-19T22:26:51.307Z,2.70
2023-02-19T22:29:18.599Z,3.10
2023-02-19T22:31:45.926Z,3.90
2023-02-19T22:34:15.577Z,2.75
2023-02-19T22:36:43.488Z,3.03
2023-02-19T22:39:27.069Z,3.13
2023-02-19T22:41:54.376Z,2.97
2023-02-19T22:44:21.634Z,2.78
2023-02-19T22:46:53.540Z,2.75
2023-02-19T22:49:22.942Z,2.63
2023-02-19T22:52:10.183Z,2.67
2023-02-19T22:54:37.880Z,3.05
2023-02-19T22:57:06.038Z,2.55
2023-02-19T22:59:33.164Z,2.67
2023-02-19T23:02:00.416Z,2.72
2023-02-19T23:04:27.629Z,3.05
2023-02-19T23:06:55.186Z,3.05
2023-02-19T23:09:27.727Z,3.15
2023-02-19T23:12:09.231Z,2.30
2023-02-19T23:14:36.971Z,2.78
2023-02-19T23:17:04.553Z,3.42
2023-02-19T23:19:32.555Z,2.70
2023-02-19T23:21:59.931Z,2.93
2023-02-19T23:24:27.198Z,2.47
2023-02-19T23:26:55.010Z,2.58
2023-02-19T23:29:26.852Z,2.20
2023-02-19T23:31:55.160Z,2.35
2023-02-19T23:34:24.355Z,2.50
2023-02-19T23:39:22.626Z,2.58
2023-02-19T23:41:56.828Z,2.72
2023-02-19T23:44:25.647Z,2.75
2023-02-19T23:46:53.486Z,3.08
2023-02-19T23:49:21.083Z,2.75
2023-02-19T23:51:49.469Z,2.75
2023-02-19T23:54:16.631Z,3.20
2023-02-19T23:56:43.931Z,2.20
2023-02-19T23:59:11.194Z,2.85
